Time;durP1;ratioP1;P1;durP2;ratioP2;P2;SDS_P1;SDS_P2;PMS_P1;PMS_P2;Temp;Humidity;BMP_temperature;BMP_pressure;BME280_temperature;BME280_humidity;BME280_pressure;Samples;Min_cycle;Max_cycle;Signal;HPM_P1;HPM_P2
2022/10/20 00:00:59;;;;;;;33.10;24.60;;;;;;;13.43;99.61;95147.63;5054051;28;20190;-78
2022/10/20 00:03:27;;;;;;;32.73;22.80;;;;;;;13.45;99.17;95147.38;5053999;28;20193;-78
2022/10/20 00:05:54;;;;;;;32.63;23.00;;;;;;;13.46;98.88;95146.38;5053617;28;20255;-78
2022/10/20 00:08:21;;;;;;;30.43;22.97;;;;;;;13.48;98.15;95141.72;5054019;28;20205;-78
2022/10/20 00:10:54;;;;;;;38.67;22.53;;;;;;;13.48;97.28;95152.16;5053506;28;20259;-78
2022/10/20 00:13:21;;;;;;;30.27;21.97;;;;;;;13.57;96.20;95150.81;5051000;28;20256;-78
2022/10/20 00:15:49;;;;;;;28.43;21.20;;;;;;;13.46;96.36;95144.56;5053828;28;20260;-78
2022/10/20 00:18:16;;;;;;;29.43;20.93;;;;;;;13.42;96.05;95146.00;5054166;28;20190;-79
2022/10/20 00:20:43;;;;;;;29.90;21.00;;;;;;;13.43;95.76;95152.84;5053391;28;20194;-79
2022/10/20 00:23:10;;;;;;;30.47;20.63;;;;;;;13.43;94.74;95142.41;5053870;28;20281;-78
2022/10/20 00:25:36;;;;;;;26.77;19.30;;;;;;;13.53;93.84;95147.09;5054075;28;20190;-78
2022/10/20 00:28:05;;;;;;;27.17;18.57;;;;;;;13.46;93.70;95146.38;5052647;28;20616;-78
2022/10/20 00:30:32;;;;;;;28.50;19.27;;;;;;;13.40;94.18;95148.06;5050970;28;20592;-78
2022/10/20 00:32:58;;;;;;;26.60;18.47;;;;;;;13.30;93.80;95136.56;5053668;28;20263;-78
2022/10/20 00:35:25;;;;;;;26.83;19.00;;;;;;;13.29;93.74;95132.38;5052640;28;20287;-79
2022/10/20 00:37:52;;;;;;;24.13;18.53;;;;;;;13.26;93.56;95128.38;5053403;28;20194;-79
2022/10/20 00:40:19;;;;;;;23.93;17.90;;;;;;;13.27;92.79;95130.00;5053608;28;20683;-78
2022/10/20 00:42:46;;;;;;;24.07;16.90;;;;;;;13.19;92.83;95127.66;5040067;28;20259;-78
2022/10/20 00:45:17;;;;;;;24.67;16.67;;;;;;;13.24;91.81;95124.41;5028510;28;20190;-77
2022/10/20 00:47:47;;;;;;;25.87;16.00;;;;;;;13.26;91.78;95127.59;5025143;28;20206;-78
2022/10/20 00:50:17;;;;;;;22.67;15.60;;;;;;;13.31;91.07;95122.50;5022191;28;20192;-78
2022/10/20 00:52:45;;;;;;;26.63;15.50;;;;;;;13.28;90.18;95108.06;5022195;28;20195;-78
2022/10/20 00:55:17;;;;;;;19.53;15.13;;;;;;;13.35;89.85;95121.84;5025214;28;20651;-79
2022/10/20 00:57:47;;;;;;;20.43;14.83;;;;;;;13.40;88.68;95124.56;5019275;28;20199;-77
2022/10/20 01:00:16;;;;;;;18.83;14.33;;;;;;;13.42;88.28;95129.59;5024191;28;20580;-78
2022/10/20 01:02:44;;;;;;;21.83;14.40;;;;;;;13.35;88.66;95128.88;5023842;28;20194;-77
2022/10/20 01:05:11;;;;;;;21.80;14.27;;;;;;;13.34;88.12;95129.88;5021739;28;20325;-77
2022/10/20 01:07:37;;;;;;;19.20;13.63;;;;;;;13.33;87.80;95131.69;5023313;28;20195;-77
2022/10/20 01:10:06;;;;;;;17.43;13.50;;;;;;;13.21;88.65;95132.69;5024603;28;20199;-77
2022/10/20 01:12:43;;;;;;;22.07;13.27;;;;;;;13.10;88.83;95126.41;5025977;28;20203;-77
2022/10/20 01:15:20;;;;;;;20.23;13.47;;;;;;;13.23;87.96;95126.22;5023879;28;20657;-77
2022/10/20 01:18:00;;;;;;;16.57;13.03;;;;;;;13.23;86.83;95123.63;5023455;28;20191;-77
2022/10/20 01:21:11;;;;;;;22.80;12.90;;;;;;;13.36;86.10;95130.47;5026945;28;20180;-77
2022/10/20 01:24:07;;;;;;;18.37;12.53;;;;;;;13.36;86.19;95135.69;4998173;28;20266;-78
2022/10/20 01:26:56;;;;;;;17.83;12.20;;;;;;;13.27;85.89;95118.75;5027694;28;20191;-77
2022/10/20 01:29:28;;;;;;;17.10;12.07;;;;;;;13.38;85.47;95133.66;5024305;28;20223;-77
2022/10/20 01:32:05;;;;;;;18.73;12.53;;;;;;;13.26;85.79;95123.16;5012768;28;20211;-78
2022/10/20 01:34:39;;;;;;;16.60;12.57;;;;;;;13.29;86.10;95124.53;5023792;28;20746;-78
2022/10/20 01:37:15;;;;;;;17.37;12.13;;;;;;;13.14;86.65;95121.53;5021432;28;20183;-78
2022/10/20 01:39:49;;;;;;;19.47;13.20;;;;;;;13.22;86.86;95129.06;5020864;28;20202;-78
2022/10/20 01:42:22;;;;;;;20.27;12.30;;;;;;;13.05;87.21;95121.81;5027209;28;20222;-78
2022/10/20 01:44:52;;;;;;;14.87;12.40;;;;;;;12.97;87.80;95127.34;5038093;28;20197;-78
2022/10/20 01:47:20;;;;;;;18.80;12.50;;;;;;;12.94;88.76;95129.59;5032501;28;20198;-78
2022/10/20 01:49:49;;;;;;;17.93;12.90;;;;;;;12.86;89.18;95129.91;5046693;28;20197;-78
2022/10/20 01:52:16;;;;;;;19.03;13.03;;;;;;;12.73;90.74;95140.47;5038550;28;20198;-78
2022/10/20 01:54:42;;;;;;;16.33;12.57;;;;;;;12.72;90.81;95133.69;5038505;28;20218;-78
2022/10/20 01:57:24;;;;;;;19.83;13.63;;;;;;;12.50;92.04;95143.75;5045674;28;20252;-77
2022/10/20 02:00:03;;;;;;;20.07;13.17;;;;;;;12.40;92.46;95139.06;5046594;28;20241;-78
2022/10/20 02:02:44;;;;;;;19.23;13.70;;;;;;;12.43;92.49;95143.03;5040786;28;20209;-78
2022/10/20 02:05:23;;;;;;;21.83;13.50;;;;;;;12.41;91.88;95134.63;5040484;28;20628;-78
2022/10/20 02:07:50;;;;;;;19.53;14.10;;;;;;;12.22;93.93;95144.25;5040356;28;20183;-78
2022/10/20 02:10:20;;;;;;;22.20;14.77;;;;;;;12.17;94.43;95146.72;5042172;28;20255;-78
2022/10/20 02:12:52;;;;;;;24.07;14.17;;;;;;;12.02;95.30;95150.66;5042543;28;20194;-77
2022/10/20 02:15:24;;;;;;;20.50;13.93;;;;;;;11.90;95.95;95146.16;5038108;28;20203;-78
2022/10/20 02:17:59;;;;;;;21.10;14.50;;;;;;;11.85;96.54;95148.59;5040349;28;20954;-78
2022/10/20 02:20:27;;;;;;;20.13;14.20;;;;;;;11.92;97.00;95151.13;5043554;28;20185;-79
2022/10/20 02:22:56;;;;;;;19.70;14.80;;;;;;;11.93;96.97;95157.94;5037895;28;20213;-78
2022/10/20 02:25:24;;;;;;;22.17;15.10;;;;;;;11.83;97.68;95153.22;5052329;28;20197;-78
2022/10/20 02:27:53;;;;;;;23.90;14.97;;;;;;;11.73;98.58;95159.91;5045569;28;20649;-78
2022/10/20 02:30:21;;;;;;;24.87;14.90;;;;;;;11.60;99.00;95160.00;5038851;28;20561;-78
2022/10/20 02:32:51;;;;;;;19.80;13.93;;;;;;;11.61;98.59;95156.38;5040274;28;20194;-78
2022/10/20 02:35:21;;;;;;;22.17;14.53;;;;;;;11.59;98.80;95158.38;5044214;28;20232;-78
2022/10/20 02:37:49;;;;;;;21.83;14.17;;;;;;;11.63;97.90;95164.78;5045458;28;20194;-77
2022/10/20 02:40:15;;;;;;;21.00;14.40;;;;;;;11.69;97.17;95167.34;5040053;28;20191;-78
2022/10/20 02:42:42;;;;;;;18.50;13.93;;;;;;;11.72;96.85;95174.72;5043066;28;20704;-78
2022/10/20 02:45:10;;;;;;;19.87;14.70;;;;;;;11.67;97.08;95163.31;5039958;28;20194;-78
2022/10/20 02:47:38;;;;;;;23.83;15.53;;;;;;;11.74;96.33;95169.31;5049041;28;20186;-79
2022/10/20 02:50:06;;;;;;;21.33;15.13;;;;;;;11.68;96.34;95173.53;5039825;28;20233;-79
2022/10/20 02:52:33;;;;;;;18.47;14.20;;;;;;;11.66;96.51;95174.78;5038379;28;20206;-78
2022/10/20 02:55:00;;;;;;;24.63;15.07;;;;;;;11.60;96.56;95165.97;5045664;28;20225;-78
2022/10/20 02:57:27;;;;;;;23.60;15.70;;;;;;;11.62;96.60;95173.59;5037203;28;20197;-78
2022/10/20 02:59:54;;;;;;;22.03;15.27;;;;;;;11.64;97.24;95176.78;5040637;28;20205;-78
2022/10/20 03:02:20;;;;;;;21.97;14.87;;;;;;;11.59;96.90;95176.63;5045817;28;20194;-79
2022/10/20 03:04:48;;;;;;;25.93;15.80;;;;;;;11.60;96.67;95171.19;5043049;28;20198;-78
2022/10/20 03:07:16;;;;;;;21.23;16.37;;;;;;;11.63;96.23;95175.19;5041795;28;20205;-78
2022/10/20 03:09:44;;;;;;;24.87;16.90;;;;;;;11.59;96.32;95174.81;5042062;28;20190;-79
2022/10/20 03:12:10;;;;;;;24.17;15.57;;;;;;;11.56;97.34;95177.03;5037549;28;20230;-78
2022/10/20 03:14:37;;;;;;;23.37;15.50;;;;;;;11.55;97.33;95176.22;5037788;28;20695;-78
2022/10/20 03:17:04;;;;;;;20.77;15.40;;;;;;;11.52;98.43;95181.84;5041968;28;20211;-78
2022/10/20 03:19:31;;;;;;;22.63;15.00;;;;;;;11.50;97.83;95177.88;5039346;28;20743;-78
2022/10/20 03:21:59;;;;;;;20.20;14.77;;;;;;;11.49;97.81;95177.06;5040876;28;20187;-77
2022/10/20 03:24:26;;;;;;;21.10;15.27;;;;;;;11.51;97.98;95184.69;5042582;28;20198;-79
2022/10/20 03:26:52;;;;;;;20.93;14.73;;;;;;;11.49;98.50;95184.88;5036847;28;20601;-77
2022/10/20 03:29:19;;;;;;;21.50;14.90;;;;;;;11.56;98.14;95200.47;5041910;28;20198;-77
2022/10/20 03:31:46;;;;;;;23.87;15.40;;;;;;;11.55;97.71;95193.66;5036782;28;20596;-78
2022/10/20 03:34:13;;;;;;;19.40;14.97;;;;;;;11.51;98.33;95192.50;5044731;28;20390;-80
2022/10/20 03:36:39;;;;;;;22.27;15.00;;;;;;;11.49;98.42;95195.28;5040628;28;20234;-78
2022/10/20 03:39:08;;;;;;;24.60;15.60;;;;;;;11.42;98.61;95191.13;5037360;28;20190;-78
2022/10/20 03:41:34;;;;;;;28.27;15.70;;;;;;;11.42;98.92;95197.16;5048435;28;20190;-78
2022/10/20 03:44:01;;;;;;;22.53;15.40;;;;;;;11.43;98.67;95192.75;5042566;28;20692;-77
2022/10/20 03:46:28;;;;;;;22.23;15.13;;;;;;;11.38;99.29;95196.75;5045102;28;20249;-78
2022/10/20 03:48:55;;;;;;;21.90;15.27;;;;;;;11.34;98.77;95200.00;5038494;28;20201;-78
2022/10/20 03:51:22;;;;;;;22.33;15.00;;;;;;;11.30;98.77;95198.81;5038699;28;20606;-77
2022/10/20 03:53:49;;;;;;;22.53;15.17;;;;;;;11.23;99.40;95196.22;5041742;28;20194;-78
2022/10/20 03:56:19;;;;;;;23.13;15.80;;;;;;;11.35;98.95;95212.78;5039780;28;20699;-78
2022/10/20 03:58:46;;;;;;;28.23;15.50;;;;;;;11.20;99.17;95188.84;5039567;28;20257;-78
2022/10/20 04:01:15;;;;;;;23.57;15.43;;;;;;;11.34;98.88;95215.63;5044755;28;20462;-78
2022/10/20 04:03:43;;;;;;;24.60;15.90;;;;;;;11.23;99.23;95205.84;5041932;28;20194;-77
2022/10/20 04:06:10;;;;;;;22.07;16.00;;;;;;;11.29;99.20;95220.63;5045370;28;20207;-77
2022/10/20 04:08:37;;;;;;;25.77;18.27;;;;;;;11.27;99.20;95210.44;5043881;28;20195;-77
2022/10/20 04:11:03;;;;;;;27.37;17.57;;;;;;;11.34;98.58;95220.81;5044870;28;20190;-78
2022/10/20 04:13:32;;;;;;;27.80;17.87;;;;;;;11.26;99.17;95221.84;5050447;28;20268;-79
2022/10/20 04:15:59;;;;;;;24.40;16.87;;;;;;;11.28;99.04;95211.25;5047383;28;20309;-78
2022/10/20 04:18:27;;;;;;;25.57;16.27;;;;;;;11.29;98.82;95216.22;5040069;28;20252;-79
2022/10/20 04:20:53;;;;;;;22.43;14.77;;;;;;;11.21;99.69;95207.88;5050111;28;20194;-79
2022/10/20 04:23:20;;;;;;;20.83;15.10;;;;;;;11.21;100.00;95211.25;5039570;28;20233;-78
2022/10/20 04:25:47;;;;;;;24.37;14.97;;;;;;;11.13;100.00;95203.69;5047512;28;20182;-79
2022/10/20 04:28:16;;;;;;;23.90;15.10;;;;;;;11.09;100.00;95207.72;5046776;28;20202;-79
2022/10/20 04:30:44;;;;;;;23.23;14.70;;;;;;;11.01;100.00;95202.75;5036596;28;20226;-77
2022/10/20 04:33:12;;;;;;;20.07;14.83;;;;;;;10.83;100.00;95206.03;5047291;28;20255;-77
2022/10/20 04:35:39;;;;;;;26.43;16.30;;;;;;;10.87;100.00;95198.63;5041857;28;20214;-77
2022/10/20 04:38:06;;;;;;;23.23;16.03;;;;;;;10.89;100.00;95211.41;5044694;28;20190;-78
2022/10/20 04:40:33;;;;;;;21.07;15.30;;;;;;;10.98;100.00;95212.75;5041354;28;20194;-77
2022/10/20 04:43:00;;;;;;;20.50;15.53;;;;;;;10.98;100.00;95205.75;5046210;28;20580;-77
2022/10/20 04:45:27;;;;;;;25.90;17.03;;;;;;;11.09;100.00;95218.13;5053053;28;20267;-78
2022/10/20 04:47:55;;;;;;;22.73;16.83;;;;;;;11.08;100.00;95218.34;5052873;28;20208;-79
2022/10/20 04:50:22;;;;;;;23.80;16.10;;;;;;;11.09;100.00;95212.91;5052780;28;20209;-78
2022/10/20 04:52:50;;;;;;;28.37;17.33;;;;;;;10.99;100.00;95209.16;5053005;28;20700;-78
2022/10/20 04:55:17;;;;;;;26.30;16.90;;;;;;;11.00;100.00;95221.16;5052818;28;20197;-78
2022/10/20 04:57:43;;;;;;;29.13;17.57;;;;;;;10.99;100.00;95230.78;5052781;28;20194;-79
2022/10/20 05:00:11;;;;;;;32.23;19.23;;;;;;;10.92;100.00;95224.78;5052396;28;20248;-78
2022/10/20 05:02:38;;;;;;;27.33;18.47;;;;;;;10.92;100.00;95235.19;5052012;28;20647;-77
2022/10/20 05:05:07;;;;;;;30.13;18.47;;;;;;;10.93;100.00;95236.81;5052168;28;20624;-79
2022/10/20 05:07:34;;;;;;;30.47;18.37;;;;;;;10.91;100.00;95243.22;5054974;28;20357;-79
2022/10/20 05:10:00;;;;;;;23.80;16.17;;;;;;;10.88;100.00;95244.41;5052569;28;20190;-79
2022/10/20 05:12:27;;;;;;;24.60;16.80;;;;;;;10.83;100.00;95244.22;5052968;28;20202;-78
2022/10/20 05:14:54;;;;;;;37.47;16.80;;;;;;;10.86;100.00;95243.00;5052572;28;20663;-78
2022/10/20 05:17:21;;;;;;;27.13;15.90;;;;;;;10.93;100.00;95243.81;5052697;28;20221;-78
2022/10/20 05:19:48;;;;;;;24.40;17.23;;;;;;;10.92;100.00;95247.38;5052827;28;20193;-77
2022/10/20 05:22:16;;;;;;;27.63;16.43;;;;;;;10.97;100.00;95256.16;5052316;28;20190;-79
2022/10/20 05:24:43;;;;;;;34.17;18.33;;;;;;;11.05;100.00;95255.97;5052010;28;20197;-78
2022/10/20 05:27:09;;;;;;;29.57;18.73;;;;;;;11.03;100.00;95260.56;5051634;28;20258;-78
2022/10/20 05:29:36;;;;;;;30.83;19.33;;;;;;;11.00;100.00;95273.97;5050363;28;20198;-78
2022/10/20 05:32:03;;;;;;;29.17;19.17;;;;;;;10.98;100.00;95275.19;5051517;28;20216;-78
2022/10/20 05:34:30;;;;;;;30.20;19.53;;;;;;;10.98;100.00;95275.19;5051596;28;20198;-77
2022/10/20 05:36:57;;;;;;;32.93;18.77;;;;;;;11.04;100.00;95279.56;5051595;28;20271;-77
2022/10/20 05:39:25;;;;;;;30.40;19.17;;;;;;;11.06;100.00;95282.75;5050874;28;20205;-78
2022/10/20 05:41:52;;;;;;;33.23;19.23;;;;;;;11.06;100.00;95296.56;5047598;28;20194;-78
2022/10/20 05:44:19;;;;;;;26.20;17.33;;;;;;;11.02;100.00;95284.19;5030834;28;20187;-79
2022/10/20 05:46:45;;;;;;;25.77;17.27;;;;;;;11.11;100.00;95301.16;5030782;28;20195;-78
2022/10/20 05:49:15;;;;;;;23.23;16.13;;;;;;;11.15;100.00;95305.75;5027387;28;20191;-77
2022/10/20 05:51:42;;;;;;;24.03;16.57;;;;;;;11.21;100.00;95320.53;5030224;28;20191;-78
2022/10/20 05:54:11;;;;;;;27.80;17.40;;;;;;;11.22;100.00;95323.94;5030061;28;20191;-79
2022/10/20 05:56:40;;;;;;;24.97;18.20;;;;;;;11.11;100.00;95320.16;5030355;28;20215;-77
2022/10/20 05:59:07;;;;;;;31.87;20.53;;;;;;;11.23;100.00;95334.13;5030801;28;20199;-78
2022/10/20 06:01:46;;;;;;;25.10;18.40;;;;;;;11.28;100.00;95330.94;5031620;28;20202;-78
2022/10/20 06:04:13;;;;;;;26.30;18.63;;;;;;;11.36;100.00;95341.09;5030646;28;20269;-80
2022/10/20 06:06:40;;;;;;;25.37;17.93;;;;;;;11.34;100.00;95340.53;5031068;28;20190;-79
2022/10/20 06:09:08;;;;;;;27.77;17.47;;;;;;;11.24;100.00;95329.72;5030618;28;20641;-79
2022/10/20 06:11:35;;;;;;;28.53;18.93;;;;;;;11.34;100.00;95345.72;5031164;28;20238;-80
2022/10/20 06:14:04;;;;;;;24.70;17.43;;;;;;;11.36;100.00;95352.31;5030384;28;20205;-79
2022/10/20 06:16:31;;;;;;;33.67;20.37;;;;;;;11.35;100.00;95362.91;5030624;28;20218;-80
2022/10/20 06:18:59;;;;;;;28.57;19.57;;;;;;;11.37;100.00;95350.50;5030617;28;20244;-78
2022/10/20 06:21:28;;;;;;;30.77;20.90;;;;;;;11.38;100.00;95363.31;5030149;28;20251;-80
2022/10/20 06:23:55;;;;;;;30.57;20.30;;;;;;;11.46;100.00;95359.69;5027830;28;20195;-79
2022/10/20 06:26:25;;;;;;;27.90;19.07;;;;;;;11.39;100.00;95364.94;5029161;28;20276;-80
2022/10/20 06:28:54;;;;;;;27.60;18.87;;;;;;;11.33;100.00;95367.53;5030290;28;20202;-79
2022/10/20 06:31:24;;;;;;;29.17;18.93;;;;;;;11.31;100.00;95367.72;5030263;28;20688;-79
2022/10/20 06:33:51;;;;;;;25.90;18.03;;;;;;;11.32;100.00;95369.34;5030277;28;20253;-80
2022/10/20 06:36:19;;;;;;;31.40;19.80;;;;;;;11.29;100.00;95380.16;5030170;28;20215;-79
2022/10/20 06:38:47;;;;;;;30.67;19.30;;;;;;;11.39;100.00;95374.53;5030151;28;20206;-79
2022/10/20 06:41:16;;;;;;;25.60;18.50;;;;;;;11.47;100.00;95376.91;5027891;28;20218;-79
2022/10/20 06:43:43;;;;;;;26.00;18.13;;;;;;;11.44;100.00;95373.91;5040447;28;20245;-79
2022/10/20 06:46:13;;;;;;;25.67;18.20;;;;;;;11.53;100.00;95375.28;5021507;28;20241;-79
2022/10/20 06:48:41;;;;;;;27.43;18.30;;;;;;;11.39;100.00;95379.75;5040401;28;20264;-79
2022/10/20 06:51:11;;;;;;;29.03;17.87;;;;;;;11.49;100.00;95371.47;5038651;28;20221;-79
2022/10/20 06:53:38;;;;;;;31.67;17.10;;;;;;;11.45;100.00;95370.31;5039923;28;20656;-80
2022/10/20 06:56:07;;;;;;;25.40;17.20;;;;;;;11.62;100.00;95387.88;5039678;28;20186;-78
2022/10/20 06:58:35;;;;;;;26.80;16.77;;;;;;;11.64;100.00;95391.06;5041526;28;20194;-78
2022/10/20 07:01:05;;;;;;;28.37;17.00;;;;;;;11.59;100.00;95385.69;5041753;28;20198;-78
2022/10/20 07:03:32;;;;;;;24.13;16.13;;;;;;;11.68;100.00;95397.47;5041279;28;20212;-79
2022/10/20 07:06:01;;;;;;;23.40;15.57;;;;;;;11.78;100.00;95399.66;5042728;28;20197;-79
2022/10/20 07:08:29;;;;;;;22.10;15.70;;;;;;;11.85;100.00;95395.22;5041786;28;20190;-79
2022/10/20 07:11:00;;;;;;;20.57;15.37;;;;;;;11.99;100.00;95391.53;5040787;28;20195;-80
2022/10/20 07:13:29;;;;;;;20.70;15.33;;;;;;;12.00;100.00;95398.38;5042596;28;20571;-80
2022/10/20 07:15:56;;;;;;;27.17;16.10;;;;;;;11.97;100.00;95387.56;5040062;28;20199;-79
2022/10/20 07:18:24;;;;;;;25.87;16.93;;;;;;;11.91;100.00;95394.41;5039577;28;20194;-78
2022/10/20 07:20:51;;;;;;;22.07;16.47;;;;;;;11.98;100.00;95399.59;5041127;28;20190;-77
2022/10/20 07:23:20;;;;;;;20.90;15.70;;;;;;;11.98;100.00;95392.53;5040259;28;20548;-77
2022/10/20 07:25:46;;;;;;;25.53;16.53;;;;;;;12.02;100.00;95395.53;5042061;28;20198;-78
2022/10/20 07:28:13;;;;;;;22.63;15.70;;;;;;;11.96;100.00;95384.16;5041595;28;20264;-78
2022/10/20 07:30:41;;;;;;;24.77;16.60;;;;;;;12.11;100.00;95400.31;5042215;28;20210;-77
2022/10/20 07:33:08;;;;;;;23.93;16.43;;;;;;;12.03;100.00;95400.56;5039007;28;20191;-78
2022/10/20 07:35:36;;;;;;;26.87;16.00;;;;;;;12.10;99.52;95398.69;5039453;28;20190;-79
2022/10/20 07:38:03;;;;;;;22.57;16.80;;;;;;;12.13;99.41;95398.28;5045167;28;20211;-79
2022/10/20 07:40:31;;;;;;;27.33;16.97;;;;;;;12.12;99.32;95407.09;5042823;28;20194;-79
2022/10/20 07:42:58;;;;;;;23.43;15.53;;;;;;;12.15;98.90;95398.09;5049252;28;20236;-78
2022/10/20 07:45:25;;;;;;;24.87;16.93;;;;;;;12.14;99.00;95394.69;5043463;28;20190;-78
2022/10/20 07:47:51;;;;;;;24.00;16.60;;;;;;;12.22;97.61;95389.22;5044633;28;20194;-78
2022/10/20 07:50:19;;;;;;;25.47;15.80;;;;;;;12.39;96.78;95403.34;5043760;28;20622;-79
2022/10/20 07:52:50;;;;;;;22.17;14.87;;;;;;;12.48;96.09;95396.88;5043055;28;20190;-78
2022/10/20 07:55:17;;;;;;;23.93;16.13;;;;;;;12.57;95.00;95386.19;5044913;28;20275;-78
2022/10/20 07:57:45;;;;;;;20.50;14.33;;;;;;;12.61;95.23;95393.34;5044743;28;20218;-76
2022/10/20 08:00:13;;;;;;;23.60;15.17;;;;;;;12.64;94.38;95381.72;5044763;28;20260;-77
2022/10/20 08:02:40;;;;;;;18.43;13.80;;;;;;;12.71;94.15;95398.09;5043049;28;20918;-78
2022/10/20 08:05:08;;;;;;;22.00;13.20;;;;;;;12.72;92.76;95387.47;5044514;28;20230;-76
2022/10/20 08:07:35;;;;;;;18.47;13.27;;;;;;;12.70;93.21;95388.72;5043395;28;20191;-77
2022/10/20 08:10:02;;;;;;;19.47;12.17;;;;;;;12.61;91.97;95387.38;5042614;28;20202;-79
2022/10/20 08:12:29;;;;;;;25.33;12.83;;;;;;;12.76;91.95;95395.66;5042087;28;20240;-80
2022/10/20 08:14:57;;;;;;;18.90;12.77;;;;;;;12.82;91.38;95395.59;5045723;28;20198;-80
2022/10/20 08:17:24;;;;;;;16.50;12.23;;;;;;;12.88;89.73;95378.31;5042956;28;20221;-80
2022/10/20 08:19:51;;;;;;;19.47;11.77;;;;;;;12.96;88.88;95391.88;5044773;28;20244;-81
2022/10/20 08:22:18;;;;;;;16.70;11.90;;;;;;;13.03;87.98;95389.22;5047045;28;20596;-81
2022/10/20 08:24:45;;;;;;;17.93;11.60;;;;;;;13.23;86.56;95387.25;5042699;28;20278;-80
2022/10/20 08:27:12;;;;;;;13.53;9.83;;;;;;;13.36;85.60;95389.72;5045565;28;20195;-79
2022/10/20 08:29:39;;;;;;;17.37;10.63;;;;;;;13.45;84.65;95392.84;5043329;28;20194;-79
2022/10/20 08:32:09;;;;;;;16.07;9.50;;;;;;;13.54;83.92;95386.31;5044367;28;20201;-80
2022/10/20 08:34:35;;;;;;;13.23;9.83;;;;;;;13.62;83.55;95386.06;5059670;28;20201;-81
2022/10/20 08:37:02;;;;;;;14.43;9.30;;;;;;;13.68;82.88;95390.38;5055069;28;20209;-80
2022/10/20 08:39:29;;;;;;;15.80;9.30;;;;;;;13.89;82.27;95391.75;5051173;28;20202;-80
2022/10/20 08:41:57;;;;;;;13.77;9.67;;;;;;;13.99;80.80;95377.16;5043682;28;20196;-79
2022/10/20 08:44:27;;;;;;;12.37;9.30;;;;;;;14.13;79.51;95381.19;5048547;28;20241;-79
2022/10/20 08:46:55;;;;;;;13.03;9.47;;;;;;;14.57;77.83;95377.34;5047127;28;20186;-79
2022/10/20 08:49:27;;;;;;;12.03;9.30;;;;;;;15.11;75.74;95378.09;5032978;28;20202;-80
2022/10/20 08:51:54;;;;;;;16.23;8.80;;;;;;;15.48;73.63;95384.72;5034026;28;20194;-80
2022/10/20 08:54:22;;;;;;;13.27;8.30;;;;;;;16.04;71.26;95377.97;5038712;28;20520;-79
2022/10/20 08:56:48;;;;;;;9.53;7.40;;;;;;;16.23;67.98;95388.03;5048127;28;20240;-80
2022/10/20 08:59:28;;;;;;;14.13;7.97;;;;;;;16.54;66.74;95378.91;5047883;28;20194;-79
2022/10/20 09:01:56;;;;;;;11.80;7.53;;;;;;;16.85;64.81;95377.59;5038266;28;20281;-79
2022/10/20 09:04:27;;;;;;;10.77;6.70;;;;;;;16.99;62.97;95384.91;5048214;28;20195;-79
2022/10/20 09:06:59;;;;;;;8.60;6.63;;;;;;;17.05;62.70;95390.25;5045402;28;20197;-80
2022/10/20 09:09:30;;;;;;;11.03;6.73;;;;;;;17.48;60.95;95395.59;5047807;28;20198;-78
2022/10/20 09:12:05;;;;;;;8.67;6.00;;;;;;;17.34;59.17;95387.28;5047602;28;20640;-79
2022/10/20 09:14:36;;;;;;;9.23;5.60;;;;;;;17.27;59.03;95388.47;5043879;28;20195;-78
2022/10/20 09:17:04;;;;;;;9.43;6.10;;;;;;;17.58;59.14;95396.56;5041058;28;20206;-78
2022/10/20 09:19:32;;;;;;;10.40;6.03;;;;;;;17.63;57.61;95390.59;5049529;28;20198;-78
2022/10/20 09:22:04;;;;;;;12.00;6.60;;;;;;;18.06;57.03;95400.31;5040180;28;20190;-79
2022/10/20 09:24:32;;;;;;;10.97;5.40;;;;;;;18.34;53.98;95392.22;5041719;28;20649;-78
2022/10/20 09:27:19;;;;;;;8.50;5.37;;;;;;;18.56;52.77;95400.06;5041209;28;20202;-79
2022/10/20 09:29:46;;;;;;;8.82;5.10;;;;;;;18.68;51.90;95400.72;5040628;28;20908;-78
2022/10/20 09:32:18;;;;;;;8.27;5.50;;;;;;;18.95;51.60;95398.06;5033810;28;20207;-79
2022/10/20 09:34:46;;;;;;;8.48;5.38;;;;;;;19.21;51.30;95392.75;5050140;28;20213;-79
2022/10/20 09:37:17;;;;;;;5.50;5.00;;;;;;;19.66;48.68;95402.00;5046327;28;20609;-77
2022/10/20 09:39:52;;;;;;;8.10;5.15;;;;;;;20.14;48.52;95406.19;5042746;28;20261;-78
2022/10/20 09:42:23;;;;;;;10.43;5.68;;;;;;;20.55;46.70;95394.69;5041689;28;20320;-78
2022/10/20 09:44:53;;;;;;;7.75;5.10;;;;;;;20.32;45.93;95398.59;5038227;28;20245;-77
2022/10/20 09:47:22;;;;;;;7.30;5.20;;;;;;;20.22;46.84;95403.03;5047022;28;20186;-77
2022/10/20 09:49:57;;;;;;;7.78;5.50;;;;;;;19.21;48.49;95394.56;5042768;28;20186;-78
2022/10/20 09:52:29;;;;;;;10.30;5.00;;;;;;;19.68;49.41;95400.69;5040027;28;20201;-78
2022/10/20 09:55:01;;;;;;;10.07;4.78;;;;;;;20.10;47.17;95382.16;5046114;28;20178;-78
2022/10/20 09:57:28;;;;;;;8.38;4.65;;;;;;;20.71;45.29;95390.25;5037719;28;20209;-78
2022/10/20 09:59:56;;;;;;;7.35;5.15;;;;;;;20.97;43.81;95391.84;5034523;28;20544;-78
2022/10/20 10:02:30;;;;;;;6.85;4.80;;;;;;;21.36;43.48;95394.75;5040493;28;20226;-78
2022/10/20 10:05:14;;;;;;;7.03;4.07;;;;;;;22.25;41.92;95391.34;5035236;28;20194;-78
2022/10/20 10:07:41;;;;;;;7.70;4.70;;;;;;;22.39;40.77;95387.03;5038044;28;20286;-79
2022/10/20 10:10:24;;;;;;;8.07;4.00;;;;;;;22.13;40.20;95394.31;5040240;28;20206;-79
2022/10/20 10:12:52;;;;;;;6.53;4.85;;;;;;;21.93;40.06;95387.22;5048653;28;20190;-78
2022/10/20 10:15:26;;;;;;;5.43;4.38;;;;;;;20.98;41.98;95374.13;5038947;28;20198;-78
2022/10/20 10:17:55;;;;;;;4.75;4.13;;;;;;;20.53;43.02;95388.88;5038267;28;20564;-79
2022/10/20 10:20:34;;;;;;;6.15;4.20;;;;;;;21.02;42.28;95375.97;5038419;28;20194;-78
2022/10/20 10:23:22;;;;;;;5.80;4.70;;;;;;;20.95;42.67;95376.22;5046249;28;20701;-78
2022/10/20 10:25:50;;;;;;;7.05;4.60;;;;;;;21.22;42.16;95381.28;5037956;28;20197;-78
2022/10/20 10:28:27;;;;;;;8.35;5.82;;;;;;;21.48;42.04;95369.59;5043343;28;20190;-78
2022/10/20 10:31:22;;;;;;;13.48;5.00;;;;;;;21.83;40.50;95360.78;5041653;28;20186;-77
2022/10/20 10:33:52;;;;;;;6.88;5.13;;;;;;;22.28;39.29;95375.69;5042983;28;20193;-78
2022/10/20 10:36:30;;;;;;;4.93;4.07;;;;;;;22.39;38.56;95377.22;5050753;28;20201;-78
2022/10/20 10:38:58;;;;;;;8.60;4.53;;;;;;;22.53;39.01;95372.09;5039139;28;20215;-77
2022/10/20 10:41:41;;;;;;;5.00;4.07;;;;;;;22.98;37.70;95369.16;5044196;28;20666;-77
2022/10/20 10:44:14;;;;;;;5.15;4.28;;;;;;;22.79;37.62;95370.09;5041347;28;20681;-77
2022/10/20 10:46:44;;;;;;;4.68;4.13;;;;;;;22.75;37.72;95369.06;5041816;28;20186;-78
2022/10/20 10:49:41;;;;;;;5.30;4.63;;;;;;;23.07;37.66;95364.03;5039150;28;20194;-78
2022/10/20 10:52:24;;;;;;;5.78;4.50;;;;;;;23.41;36.83;95364.03;5044467;28;20191;-78
2022/10/20 10:55:12;;;;;;;4.30;3.90;;;;;;;24.13;35.80;95368.28;5041748;28;20213;-77
2022/10/20 10:57:53;;;;;;;5.60;3.90;;;;;;;24.56;34.87;95353.09;5037582;28;20203;-78
2022/10/20 11:00:31;;;;;;;7.05;4.07;;;;;;;24.56;34.46;95363.75;5041056;28;20186;-77
2022/10/20 11:03:05;;;;;;;6.00;4.00;;;;;;;24.16;34.77;95341.94;5039878;28;20202;-78
2022/10/20 11:06:00;;;;;;;6.28;4.80;;;;;;;24.46;33.97;95351.38;5039703;28;20730;-77
2022/10/20 11:08:38;;;;;;;7.00;4.18;;;;;;;24.45;34.53;95357.75;5041304;28;20602;-77
2022/10/20 11:11:17;;;;;;;6.22;4.13;;;;;;;24.97;33.68;95350.63;5042003;28;20182;-77
2022/10/20 11:13:52;;;;;;;5.75;3.90;;;;;;;25.72;32.38;95353.84;5045757;28;20197;-79
2022/10/20 11:16:31;;;;;;;6.07;3.80;;;;;;;24.85;32.12;95329.03;5045995;28;20722;-78
2022/10/20 11:19:19;;;;;;;6.10;3.65;;;;;;;24.74;33.23;95346.97;5044206;28;20697;-78
2022/10/20 11:21:55;;;;;;;5.68;4.50;;;;;;;25.11;32.67;95346.91;5047777;28;20205;-78
2022/10/20 11:24:36;;;;;;;4.70;4.22;;;;;;;24.64;32.80;95326.66;5047397;28;20660;-78
2022/10/20 11:27:08;;;;;;;5.05;4.40;;;;;;;24.01;33.08;95346.63;5045338;28;20186;-76
2022/10/20 11:29:40;;;;;;;5.85;4.00;;;;;;;23.98;34.19;95339.25;5045523;28;20197;-76
2022/10/20 11:32:17;;;;;;;5.38;4.00;;;;;;;24.32;33.67;95333.78;5045012;28;20206;-77